PKWA TAF

82.6 °F / 28.1 °C
ENE at 23 MPH
77%
74.7°F / 23.7 °C
29.86" (1011 mb)
10 mile(s)
clear
2022.12.04 2140 UTC

PKWA TAF

2022/12/04 18:47
TAF PKWA 041741Z 0418/0518 09017G25KT P6SM VCSH SCT025 SCT045 BKN090
TEMPO 0418/0422 5SM -TSRA BKN025CB BKN050